EGPD/ABZ METAR and TAF weather

Enter ICAO airport designator
Station Type Date Time Source
EGPD METAR 2019/04/25 00:50 UTC NOAA

EGPD 250050Z AUTO 08004KT 040V110 1700 BR OVC002 08/08 Q0995 TEMPO 0500 FG OVC000


Station Type Date Time Source
EGPD Decoded METAR 2019/04/25 00:50 UTC NOAA

Aberdeen / Dyce, United Kingdom (EGPD) 57-12N 002-13W 0M
Apr 24, 2019 - 08:50 PM EDT / 2019.04.25 0050 UTC
Wind: from the E (080 degrees) at 5 MPH (4 KT) (direction variable):0
Visibility: 1 mile(s):0
Sky conditions: overcast
Weather: mist
Temperature: 46 F (8 C)
Dew Point: 46 F (8 C)
Relative Humidity: 100%
Pressure (altimeter): 29.38 in. Hg (0995 hPa)
ob: EGPD 250050Z AUTO 08004KT 040V110 1700 BR OVC002 08/08 Q0995 TEMPO 0500 FG OVC000
cycle: 1

Station Type Date Time Source
EGPD TAF 2019/04/24 22:46 UTC NOAA

TAF
AMD EGPD 242239Z 2422/2518 08009KT 6000 BKN007
TEMPO 2422/2506 1200 RADZ BR BKN002 PROB40
TEMPO 2422/2505 0500 FG VV///
BECMG 2505/2508 9999 SCT007
BECMG 2509/2512 14012KT
BECMG 2512/2515 6000 BKN005
TEMPO 2515/2518 1200 RADZ BR BKN002 PROB30
TEMPO 2515/2518 0500 FG VV///

Example: see airport list